sensor_id;sensor_type;location;lat;lon;timestamp;pressure;altitude;pressure_sealevel;temperature;humidity
68508;BME280;55510;49.560;19.090;2022-12-29T00:02:31;96593.03;;;0.23;73.35
68508;BME280;55510;49.560;19.090;2022-12-29T00:05:31;96594.84;;;0.22;73.23
68508;BME280;55510;49.560;19.090;2022-12-29T00:08:32;96590.75;;;0.20;73.54
68508;BME280;55510;49.560;19.090;2022-12-29T00:11:42;96593.66;;;0.25;73.37
68508;BME280;55510;49.560;19.090;2022-12-29T00:14:42;96595.66;;;0.23;73.56
68508;BME280;55510;49.560;19.090;2022-12-29T00:18:02;96595.81;;;0.21;73.42
68508;BME280;55510;49.560;19.090;2022-12-29T00:21:03;96596.63;;;0.22;73.75
68508;BME280;55510;49.560;19.090;2022-12-29T00:24:22;96593.50;;;0.26;73.44
68508;BME280;55510;49.560;19.090;2022-12-29T00:27:26;96592.97;;;0.31;73.43
68508;BME280;55510;49.560;19.090;2022-12-29T00:30:46;96614.56;;;0.33;73.52
68508;BME280;55510;49.560;19.090;2022-12-29T00:34:08;96607.00;;;0.38;72.92
68508;BME280;55510;49.560;19.090;2022-12-29T00:37:29;96604.66;;;0.43;72.82
68508;BME280;55510;49.560;19.090;2022-12-29T00:40:48;96604.84;;;0.42;72.77
68508;BME280;55510;49.560;19.090;2022-12-29T00:44:08;96608.63;;;0.39;73.22
68508;BME280;55510;49.560;19.090;2022-12-29T00:47:10;96615.16;;;0.43;72.99
68508;BME280;55510;49.560;19.090;2022-12-29T00:50:11;96608.75;;;0.46;72.35
68508;BME280;55510;49.560;19.090;2022-12-29T00:53:11;96602.25;;;0.42;73.01
68508;BME280;55510;49.560;19.090;2022-12-29T00:56:12;96601.09;;;0.45;72.52
68508;BME280;55510;49.560;19.090;2022-12-29T00:59:13;96601.59;;;0.40;72.96
68508;BME280;55510;49.560;19.090;2022-12-29T01:02:14;96595.88;;;0.36;73.33
68508;BME280;55510;49.560;19.090;2022-12-29T01:05:15;96579.88;;;0.31;73.51
68508;BME280;55510;49.560;19.090;2022-12-29T01:08:16;96585.47;;;0.28;73.16
68508;BME280;55510;49.560;19.090;2022-12-29T01:11:16;96579.59;;;0.26;73.94
68508;BME280;55510;49.560;19.090;2022-12-29T01:14:18;96590.88;;;0.26;74.05
68508;BME280;55510;49.560;19.090;2022-12-29T01:17:19;96586.16;;;0.22;74.44
68508;BME280;55510;49.560;19.090;2022-12-29T01:20:19;96587.78;;;0.23;74.63
68508;BME280;55510;49.560;19.090;2022-12-29T01:23:20;96591.88;;;0.25;74.48
68508;BME280;55510;49.560;19.090;2022-12-29T01:26:21;96588.03;;;0.36;74.09
68508;BME280;55510;49.560;19.090;2022-12-29T01:29:22;96590.06;;;0.49;73.48
68508;BME280;55510;49.560;19.090;2022-12-29T01:32:23;96586.75;;;0.55;73.39
68508;BME280;55510;49.560;19.090;2022-12-29T01:35:23;96587.41;;;0.57;73.30
68508;BME280;55510;49.560;19.090;2022-12-29T01:38:24;96592.97;;;0.54;73.53
68508;BME280;55510;49.560;19.090;2022-12-29T01:41:25;96589.66;;;0.61;73.18
68508;BME280;55510;49.560;19.090;2022-12-29T01:47:52;96599.56;;;0.74;73.20
68508;BME280;55510;49.560;19.090;2022-12-29T01:50:55;96600.03;;;0.77;72.93
68508;BME280;55510;49.560;19.090;2022-12-29T01:53:57;96595.88;;;0.83;73.12
68508;BME280;55510;49.560;19.090;2022-12-29T01:57:02;96597.81;;;0.89;72.65
68508;BME280;55510;49.560;19.090;2022-12-29T02:00:10;96596.91;;;0.97;72.56
68508;BME280;55510;49.560;19.090;2022-12-29T02:03:12;96600.28;;;1.06;72.58
68508;BME280;55510;49.560;19.090;2022-12-29T02:06:23;96597.94;;;1.11;72.22
68508;BME280;55510;49.560;19.090;2022-12-29T02:09:26;96593.25;;;1.21;72.29
68508;BME280;55510;49.560;19.090;2022-12-29T02:12:27;96597.78;;;1.27;71.79
68508;BME280;55510;49.560;19.090;2022-12-29T02:19:15;96589.03;;;1.35;71.30
68508;BME280;55510;49.560;19.090;2022-12-29T02:22:38;96593.75;;;1.40;71.62
68508;BME280;55510;49.560;19.090;2022-12-29T02:48:51;96558.09;;;1.61;69.66
68508;BME280;55510;49.560;19.090;2022-12-29T02:52:32;96544.81;;;1.62;69.53
68508;BME280;55510;49.560;19.090;2022-12-29T02:55:34;96545.53;;;1.56;69.65
68508;BME280;55510;49.560;19.090;2022-12-29T02:58:35;96536.69;;;1.57;69.79
68508;BME280;55510;49.560;19.090;2022-12-29T03:08:53;96545.63;;;1.33;71.39
68508;BME280;55510;49.560;19.090;2022-12-29T03:15:25;96556.72;;;1.50;70.89
68508;BME280;55510;49.560;19.090;2022-12-29T03:25:26;96549.59;;;1.43;71.70
68508;BME280;55510;49.560;19.090;2022-12-29T03:28:44;96563.59;;;1.51;71.41
68508;BME280;55510;49.560;19.090;2022-12-29T03:31:49;96572.56;;;1.41;71.63
68508;BME280;55510;49.560;19.090;2022-12-29T03:34:52;96567.41;;;1.33;71.92
68508;BME280;55510;49.560;19.090;2022-12-29T03:38:16;96575.81;;;1.28;72.25
68508;BME280;55510;49.560;19.090;2022-12-29T03:41:23;96591.91;;;1.25;72.57
68508;BME280;55510;49.560;19.090;2022-12-29T03:44:35;96571.56;;;1.27;72.83
68508;BME280;55510;49.560;19.090;2022-12-29T03:47:37;96565.16;;;1.30;72.29
68508;BME280;55510;49.560;19.090;2022-12-29T03:50:38;96544.34;;;1.28;72.64
68508;BME280;55510;49.560;19.090;2022-12-29T03:53:39;96552.75;;;1.24;72.97
68508;BME280;55510;49.560;19.090;2022-12-29T03:56:40;96553.94;;;1.21;73.16
68508;BME280;55510;49.560;19.090;2022-12-29T03:59:41;96557.53;;;1.20;73.25
68508;BME280;55510;49.560;19.090;2022-12-29T04:02:41;96557.53;;;1.20;73.59
68508;BME280;55510;49.560;19.090;2022-12-29T04:05:42;96557.91;;;1.17;73.51
68508;BME280;55510;49.560;19.090;2022-12-29T04:08:43;96551.22;;;1.14;73.66
68508;BME280;55510;49.560;19.090;2022-12-29T04:11:43;96544.16;;;1.15;73.88
68508;BME280;55510;49.560;19.090;2022-12-29T04:14:44;96565.50;;;1.12;74.18
68508;BME280;55510;49.560;19.090;2022-12-29T04:17:45;96555.84;;;1.12;73.97
68508;BME280;55510;49.560;19.090;2022-12-29T04:20:45;96545.97;;;1.14;74.38
68508;BME280;55510;49.560;19.090;2022-12-29T04:24:01;96543.00;;;1.18;74.18
68508;BME280;55510;49.560;19.090;2022-12-29T04:27:02;96539.66;;;1.24;73.87
68508;BME280;55510;49.560;19.090;2022-12-29T04:30:03;96537.94;;;1.31;73.77
68508;BME280;55510;49.560;19.090;2022-12-29T04:33:03;96547.69;;;1.37;73.07
68508;BME280;55510;49.560;19.090;2022-12-29T04:36:05;96544.28;;;1.22;74.12
68508;BME280;55510;49.560;19.090;2022-12-29T04:39:06;96552.47;;;1.04;74.31
68508;BME280;55510;49.560;19.090;2022-12-29T04:42:07;96548.66;;;0.91;75.38
68508;BME280;55510;49.560;19.090;2022-12-29T04:45:08;96544.22;;;0.92;76.19
68508;BME280;55510;49.560;19.090;2022-12-29T04:48:09;96538.72;;;0.86;76.17
68508;BME280;55510;49.560;19.090;2022-12-29T04:51:10;96533.13;;;1.05;75.83
68508;BME280;55510;49.560;19.090;2022-12-29T04:54:11;96542.31;;;0.85;76.45
68508;BME280;55510;49.560;19.090;2022-12-29T04:57:11;96541.69;;;0.83;76.28
68508;BME280;55510;49.560;19.090;2022-12-29T05:00:13;96539.38;;;0.65;77.25
68508;BME280;55510;49.560;19.090;2022-12-29T05:03:13;96540.25;;;0.57;77.57
68508;BME280;55510;49.560;19.090;2022-12-29T05:06:14;96542.13;;;0.49;77.61
68508;BME280;55510;49.560;19.090;2022-12-29T05:09:15;96543.00;;;0.41;78.52
68508;BME280;55510;49.560;19.090;2022-12-29T05:12:16;96542.19;;;0.40;78.71
68508;BME280;55510;49.560;19.090;2022-12-29T05:15:16;96537.84;;;0.33;78.95
68508;BME280;55510;49.560;19.090;2022-12-29T05:18:18;96535.09;;;0.26;79.12
68508;BME280;55510;49.560;19.090;2022-12-29T05:21:18;96541.72;;;0.13;79.35
68508;BME280;55510;49.560;19.090;2022-12-29T05:24:19;96542.94;;;0.03;79.64
68508;BME280;55510;49.560;19.090;2022-12-29T05:27:20;96552.47;;;-0.05;79.68
68508;BME280;55510;49.560;19.090;2022-12-29T05:30:21;96552.50;;;-0.13;80.43
68508;BME280;55510;49.560;19.090;2022-12-29T05:33:21;96548.03;;;-0.04;81.24
68508;BME280;55510;49.560;19.090;2022-12-29T05:36:22;96534.03;;;0.12;81.21
68508;BME280;55510;49.560;19.090;2022-12-29T05:39:23;96542.53;;;0.37;80.17
68508;BME280;55510;49.560;19.090;2022-12-29T05:42:25;96540.19;;;0.42;80.38
68508;BME280;55510;49.560;19.090;2022-12-29T05:45:26;96546.84;;;0.53;79.74
68508;BME280;55510;49.560;19.090;2022-12-29T05:48:26;96538.38;;;0.66;79.08
68508;BME280;55510;49.560;19.090;2022-12-29T05:51:27;96543.91;;;0.71;79.07
68508;BME280;55510;49.560;19.090;2022-12-29T05:54:28;96541.56;;;0.77;78.36
68508;BME280;55510;49.560;19.090;2022-12-29T05:57:29;96530.72;;;0.80;78.20
68508;BME280;55510;49.560;19.090;2022-12-29T06:00:30;96534.47;;;0.85;77.72
68508;BME280;55510;49.560;19.090;2022-12-29T06:03:30;96544.81;;;0.79;78.18
68508;BME280;55510;49.560;19.090;2022-12-29T06:06:31;96545.47;;;0.81;77.84
68508;BME280;55510;49.560;19.090;2022-12-29T06:09:32;96547.38;;;0.87;77.64
68508;BME280;55510;49.560;19.090;2022-12-29T06:12:32;96545.38;;;0.74;77.83
68508;BME280;55510;49.560;19.090;2022-12-29T06:15:33;96547.28;;;0.80;78.36
68508;BME280;55510;49.560;19.090;2022-12-29T06:18:34;96550.22;;;0.62;78.00
68508;BME280;55510;49.560;19.090;2022-12-29T06:21:35;96546.03;;;0.53;78.29
68508;BME280;55510;49.560;19.090;2022-12-29T06:24:36;96553.69;;;0.31;78.87
68508;BME280;55510;49.560;19.090;2022-12-29T06:27:36;96556.72;;;0.20;79.84
68508;BME280;55510;49.560;19.090;2022-12-29T06:30:37;96555.66;;;0.06;80.22
68508;BME280;55510;49.560;19.090;2022-12-29T06:33:38;96556.56;;;-0.10;80.74
68508;BME280;55510;49.560;19.090;2022-12-29T06:36:39;96548.41;;;-0.16;81.41
68508;BME280;55510;49.560;19.090;2022-12-29T06:39:42;96546.03;;;-0.34;82.01
68508;BME280;55510;49.560;19.090;2022-12-29T06:42:44;96541.66;;;-0.33;82.59
68508;BME280;55510;49.560;19.090;2022-12-29T06:45:44;96549.38;;;-0.48;83.08
68508;BME280;55510;49.560;19.090;2022-12-29T06:48:45;96545.47;;;-0.52;83.31
68508;BME280;55510;49.560;19.090;2022-12-29T06:51:46;96542.41;;;-0.64;83.86
68508;BME280;55510;49.560;19.090;2022-12-29T06:54:47;96526.91;;;-0.66;84.18
68508;BME280;55510;49.560;19.090;2022-12-29T06:57:48;96524.75;;;-0.62;84.59
68508;BME280;55510;49.560;19.090;2022-12-29T07:00:49;96527.03;;;-0.59;85.03
68508;BME280;55510;49.560;19.090;2022-12-29T07:03:49;96526.41;;;-0.69;85.10
68508;BME280;55510;49.560;19.090;2022-12-29T07:06:50;96527.44;;;-0.79;85.10
68508;BME280;55510;49.560;19.090;2022-12-29T07:09:51;96532.16;;;-0.82;85.62
68508;BME280;55510;49.560;19.090;2022-12-29T07:12:52;96526.47;;;-0.86;85.80
68508;BME280;55510;49.560;19.090;2022-12-29T07:15:52;96532.00;;;-0.89;86.08
68508;BME280;55510;49.560;19.090;2022-12-29T07:18:53;96530.53;;;-0.83;86.28
68508;BME280;55510;49.560;19.090;2022-12-29T07:21:54;96525.16;;;-0.82;86.68
68508;BME280;55510;49.560;19.090;2022-12-29T07:24:55;96523.63;;;-0.68;86.76
68508;BME280;55510;49.560;19.090;2022-12-29T07:27:56;96529.34;;;-0.64;87.03
68508;BME280;55510;49.560;19.090;2022-12-29T07:30:57;96515.56;;;-0.50;87.30
68508;BME280;55510;49.560;19.090;2022-12-29T07:33:58;96508.69;;;-0.51;86.57
68508;BME280;55510;49.560;19.090;2022-12-29T07:36:59;96507.06;;;-0.52;87.33
68508;BME280;55510;49.560;19.090;2022-12-29T07:40:01;96518.16;;;-0.41;87.21
68508;BME280;55510;49.560;19.090;2022-12-29T07:43:04;96515.84;;;-0.36;87.38
68508;BME280;55510;49.560;19.090;2022-12-29T07:46:04;96518.75;;;-0.31;87.46
68508;BME280;55510;49.560;19.090;2022-12-29T07:49:06;96521.16;;;-0.21;87.74
68508;BME280;55510;49.560;19.090;2022-12-29T07:52:07;96530.63;;;-0.20;87.69
68508;BME280;55510;49.560;19.090;2022-12-29T07:55:08;96530.06;;;-0.07;87.39
68508;BME280;55510;49.560;19.090;2022-12-29T07:58:09;96527.88;;;0.05;87.36
68508;BME280;55510;49.560;19.090;2022-12-29T08:01:10;96525.31;;;0.20;86.25
68508;BME280;55510;49.560;19.090;2022-12-29T08:04:11;96526.78;;;0.22;86.41
68508;BME280;55510;49.560;19.090;2022-12-29T08:07:11;96532.88;;;0.38;85.66
68508;BME280;55510;49.560;19.090;2022-12-29T08:10:13;96525.78;;;0.47;85.58
68508;BME280;55510;49.560;19.090;2022-12-29T08:13:14;96535.78;;;0.43;85.90
68508;BME280;55510;49.560;19.090;2022-12-29T08:16:15;96541.50;;;0.47;86.29
68508;BME280;55510;49.560;19.090;2022-12-29T08:19:16;96537.34;;;0.52;86.46
68508;BME280;55510;49.560;19.090;2022-12-29T08:22:16;96539.25;;;0.58;86.56
68508;BME280;55510;49.560;19.090;2022-12-29T08:25:17;96545.59;;;0.64;86.34
68508;BME280;55510;49.560;19.090;2022-12-29T08:28:19;96549.16;;;0.71;85.91
68508;BME280;55510;49.560;19.090;2022-12-29T08:31:20;96547.44;;;0.79;86.11
68508;BME280;55510;49.560;19.090;2022-12-29T08:34:21;96546.72;;;0.85;86.65
68508;BME280;55510;49.560;19.090;2022-12-29T08:37:21;96543.97;;;1.01;87.12
68508;BME280;55510;49.560;19.090;2022-12-29T08:40:22;96544.91;;;1.39;85.61
68508;BME280;55510;49.560;19.090;2022-12-29T08:43:23;96535.59;;;1.51;85.50
68508;BME280;55510;49.560;19.090;2022-12-29T08:46:24;96536.22;;;1.53;85.13
68508;BME280;55510;49.560;19.090;2022-12-29T08:49:25;96519.38;;;1.63;85.34
68508;BME280;55510;49.560;19.090;2022-12-29T08:52:25;96514.47;;;1.74;85.13
68508;BME280;55510;49.560;19.090;2022-12-29T08:55:26;96515.78;;;2.00;84.51
68508;BME280;55510;49.560;19.090;2022-12-29T08:58:27;96509.97;;;2.27;82.89
68508;BME280;55510;49.560;19.090;2022-12-29T09:01:28;96516.97;;;2.41;82.78
68508;BME280;55510;49.560;19.090;2022-12-29T09:04:30;96525.22;;;2.60;82.15
68508;BME280;55510;49.560;19.090;2022-12-29T09:07:31;96526.19;;;2.81;81.08
68508;BME280;55510;49.560;19.090;2022-12-29T09:10:32;96522.03;;;2.93;81.02
68508;BME280;55510;49.560;19.090;2022-12-29T09:13:34;96516.25;;;3.04;80.50
68508;BME280;55510;49.560;19.090;2022-12-29T09:16:35;96516.72;;;3.15;80.08
68508;BME280;55510;49.560;19.090;2022-12-29T09:19:36;96533.38;;;3.29;78.64
68508;BME280;55510;49.560;19.090;2022-12-29T09:22:37;96537.91;;;3.42;77.54
68508;BME280;55510;49.560;19.090;2022-12-29T09:25:38;96540.03;;;3.60;77.17
68508;BME280;55510;49.560;19.090;2022-12-29T09:28:38;96536.47;;;3.81;76.18
68508;BME280;55510;49.560;19.090;2022-12-29T09:31:41;96540.22;;;4.14;74.60
68508;BME280;55510;49.560;19.090;2022-12-29T09:34:41;96535.88;;;5.08;72.02
68508;BME280;55510;49.560;19.090;2022-12-29T09:37:43;96533.13;;;6.21;66.79
68508;BME280;55510;49.560;19.090;2022-12-29T09:40:45;96520.28;;;6.82;64.47
68508;BME280;55510;49.560;19.090;2022-12-29T09:44:01;96516.84;;;7.07;63.66
68508;BME280;55510;49.560;19.090;2022-12-29T09:47:03;96511.84;;;7.36;63.11
68508;BME280;55510;49.560;19.090;2022-12-29T09:53:32;96469.63;;;8.40;57.75
68508;BME280;55510;49.560;19.090;2022-12-29T09:56:37;96469.75;;;8.45;56.71
68508;BME280;55510;49.560;19.090;2022-12-29T09:59:42;96472.25;;;8.40;57.42
68508;BME280;55510;49.560;19.090;2022-12-29T10:03:06;96476.50;;;7.98;58.23
68508;BME280;55510;49.560;19.090;2022-12-29T10:16:33;96447.69;;;6.78;63.10
68508;BME280;55510;49.560;19.090;2022-12-29T10:20:02;96454.88;;;6.71;63.68
68508;BME280;55510;49.560;19.090;2022-12-29T10:23:25;96462.06;;;6.64;63.94
68508;BME280;55510;49.560;19.090;2022-12-29T10:26:28;96452.66;;;6.68;64.04
68508;BME280;55510;49.560;19.090;2022-12-29T10:29:37;96453.25;;;6.70;63.17
68508;BME280;55510;49.560;19.090;2022-12-29T10:32:57;96467.59;;;6.81;62.93
68508;BME280;55510;49.560;19.090;2022-12-29T10:36:38;96470.81;;;6.83;62.29
68508;BME280;55510;49.560;19.090;2022-12-29T10:39:37;96466.78;;;6.80;63.10
68508;BME280;55510;49.560;19.090;2022-12-29T10:46:36;96455.41;;;6.55;62.66
68508;BME280;55510;49.560;19.090;2022-12-29T10:49:41;96461.16;;;6.19;63.68
68508;BME280;55510;49.560;19.090;2022-12-29T10:52:42;96471.50;;;5.82;65.13
68508;BME280;55510;49.560;19.090;2022-12-29T10:55:44;96473.59;;;5.66;66.18
68508;BME280;55510;49.560;19.090;2022-12-29T10:58:48;96473.75;;;5.72;66.22
68508;BME280;55510;49.560;19.090;2022-12-29T11:09:23;96467.41;;;5.41;68.23
68508;BME280;55510;49.560;19.090;2022-12-29T11:12:28;96465.06;;;5.64;67.40
68508;BME280;55510;49.560;19.090;2022-12-29T11:15:49;96465.91;;;5.58;67.42
68508;BME280;55510;49.560;19.090;2022-12-29T11:18:50;96460.63;;;5.58;67.45
68508;BME280;55510;49.560;19.090;2022-12-29T11:21:52;96464.19;;;5.84;67.17
68508;BME280;55510;49.560;19.090;2022-12-29T11:24:54;96465.28;;;6.08;66.67
68508;BME280;55510;49.560;19.090;2022-12-29T11:28:15;96460.81;;;6.41;65.03
68508;BME280;55510;49.560;19.090;2022-12-29T11:31:17;96452.59;;;6.49;65.21
68508;BME280;55510;49.560;19.090;2022-12-29T11:37:29;96464.75;;;6.32;64.90
68508;BME280;55510;49.560;19.090;2022-12-29T11:40:31;96468.25;;;6.26;65.76
68508;BME280;55510;49.560;19.090;2022-12-29T11:43:41;96462.97;;;6.51;65.39
68508;BME280;55510;49.560;19.090;2022-12-29T11:46:46;96449.59;;;6.71;64.72
68508;BME280;55510;49.560;19.090;2022-12-29T11:49:51;96427.72;;;6.82;64.40
68508;BME280;55510;49.560;19.090;2022-12-29T11:56:39;96422.50;;;7.50;63.01
68508;BME280;55510;49.560;19.090;2022-12-29T11:59:43;96422.06;;;7.84;61.49
68508;BME280;55510;49.560;19.090;2022-12-29T12:03:05;96427.38;;;8.26;59.72
68508;BME280;55510;49.560;19.090;2022-12-29T12:06:14;96425.19;;;8.23;59.55
68508;BME280;55510;49.560;19.090;2022-12-29T12:09:24;96436.16;;;8.39;58.97
68508;BME280;55510;49.560;19.090;2022-12-29T12:12:40;96429.97;;;8.57;58.52
68508;BME280;55510;49.560;19.090;2022-12-29T12:15:49;96429.09;;;8.33;58.94
68508;BME280;55510;49.560;19.090;2022-12-29T12:18:58;96421.03;;;8.27;59.44
68508;BME280;55510;49.560;19.090;2022-12-29T12:22:14;96425.25;;;8.17;59.70
68508;BME280;55510;49.560;19.090;2022-12-29T12:25:23;96425.00;;;8.06;59.66
68508;BME280;55510;49.560;19.090;2022-12-29T12:28:34;96430.13;;;7.89;61.12
68508;BME280;55510;49.560;19.090;2022-12-29T12:32:10;96429.38;;;7.70;60.82
68508;BME280;55510;49.560;19.090;2022-12-29T12:35:32;96428.75;;;7.56;61.79
68508;BME280;55510;49.560;19.090;2022-12-29T12:38:51;96427.13;;;7.55;61.37
68508;BME280;55510;49.560;19.090;2022-12-29T12:51:42;96412.72;;;6.95;63.35
68508;BME280;55510;49.560;19.090;2022-12-29T13:01:34;96416.50;;;7.74;61.94
68508;BME280;55510;49.560;19.090;2022-12-29T13:08:34;96410.75;;;7.46;61.74
68508;BME280;55510;49.560;19.090;2022-12-29T13:25:24;96411.72;;;5.88;67.66
68508;BME280;55510;49.560;19.090;2022-12-29T13:28:34;96418.69;;;5.82;68.17
68508;BME280;55510;49.560;19.090;2022-12-29T13:41:55;96404.25;;;5.46;69.40
68508;BME280;55510;49.560;19.090;2022-12-29T13:45:06;96408.69;;;5.45;69.74
68508;BME280;55510;49.560;19.090;2022-12-29T13:48:20;96403.25;;;5.40;70.24
68508;BME280;55510;49.560;19.090;2022-12-29T13:51:23;96401.25;;;5.35;70.27
68508;BME280;55510;49.560;19.090;2022-12-29T14:05:03;96387.31;;;5.15;71.26
68508;BME280;55510;49.560;19.090;2022-12-29T14:08:05;96383.06;;;5.14;71.17
68508;BME280;55510;49.560;19.090;2022-12-29T14:11:16;96379.78;;;5.18;70.84
68508;BME280;55510;49.560;19.090;2022-12-29T14:14:24;96383.22;;;5.19;70.79
68508;BME280;55510;49.560;19.090;2022-12-29T14:17:25;96381.84;;;5.10;71.05
68508;BME280;55510;49.560;19.090;2022-12-29T14:20:26;96389.81;;;4.96;71.68
68508;BME280;55510;49.560;19.090;2022-12-29T14:26:42;96393.31;;;4.70;72.75
68508;BME280;55510;49.560;19.090;2022-12-29T14:29:46;96386.63;;;4.60;73.16
68508;BME280;55510;49.560;19.090;2022-12-29T14:33:12;96393.75;;;4.46;73.57
68508;BME280;55510;49.560;19.090;2022-12-29T14:36:34;96392.31;;;4.37;74.26
68508;BME280;55510;49.560;19.090;2022-12-29T14:39:41;96391.13;;;4.33;74.17
68508;BME280;55510;49.560;19.090;2022-12-29T14:42:47;96398.84;;;4.34;73.96
68508;BME280;55510;49.560;19.090;2022-12-29T14:45:54;96398.03;;;4.27;74.70
68508;BME280;55510;49.560;19.090;2022-12-29T14:48:57;96388.69;;;4.25;74.35
68508;BME280;55510;49.560;19.090;2022-12-29T14:52:28;96406.50;;;4.16;74.83
68508;BME280;55510;49.560;19.090;2022-12-29T15:01:52;96408.75;;;3.99;75.06
68508;BME280;55510;49.560;19.090;2022-12-29T15:04:58;96409.53;;;3.92;75.35
68508;BME280;55510;49.560;19.090;2022-12-29T15:08:01;96408.53;;;3.87;75.81
68508;BME280;55510;49.560;19.090;2022-12-29T15:17:33;96413.78;;;3.94;75.73
68508;BME280;55510;49.560;19.090;2022-12-29T15:20:35;96417.81;;;3.89;75.24
68508;BME280;55510;49.560;19.090;2022-12-29T15:23:44;96417.81;;;3.76;75.39
68508;BME280;55510;49.560;19.090;2022-12-29T15:26:47;96418.22;;;3.73;76.52
68508;BME280;55510;49.560;19.090;2022-12-29T15:29:59;96403.16;;;3.53;76.11
68508;BME280;55510;49.560;19.090;2022-12-29T15:33:02;96405.75;;;3.40;76.78
68508;BME280;55510;49.560;19.090;2022-12-29T15:36:05;96406.13;;;3.30;77.38
68508;BME280;55510;49.560;19.090;2022-12-29T15:39:23;96407.09;;;3.15;78.37
68508;BME280;55510;49.560;19.090;2022-12-29T15:42:52;96394.53;;;3.11;78.96
68508;BME280;55510;49.560;19.090;2022-12-29T15:45:56;96403.25;;;3.18;78.90
68508;BME280;55510;49.560;19.090;2022-12-29T15:48:57;96398.66;;;3.33;78.35
68508;BME280;55510;49.560;19.090;2022-12-29T15:51:58;96403.38;;;3.52;77.34
68508;BME280;55510;49.560;19.090;2022-12-29T15:55:02;96390.59;;;3.35;77.54
68508;BME280;55510;49.560;19.090;2022-12-29T15:58:05;96404.50;;;3.22;77.58
68508;BME280;55510;49.560;19.090;2022-12-29T16:01:34;96407.25;;;3.07;77.99
68508;BME280;55510;49.560;19.090;2022-12-29T16:04:37;96409.00;;;2.93;78.48
68508;BME280;55510;49.560;19.090;2022-12-29T16:07:37;96415.03;;;2.87;79.52
68508;BME280;55510;49.560;19.090;2022-12-29T16:10:41;96404.00;;;3.05;79.56
68508;BME280;55510;49.560;19.090;2022-12-29T16:13:43;96409.06;;;3.07;79.17
68508;BME280;55510;49.560;19.090;2022-12-29T16:16:46;96398.34;;;3.08;79.61
68508;BME280;55510;49.560;19.090;2022-12-29T16:19:54;96409.09;;;3.13;79.97
68508;BME280;55510;49.560;19.090;2022-12-29T16:22:57;96403.78;;;3.07;79.94
68508;BME280;55510;49.560;19.090;2022-12-29T16:25:59;96401.78;;;3.09;79.95
68508;BME280;55510;49.560;19.090;2022-12-29T16:29:06;96408.69;;;3.10;79.78
68508;BME280;55510;49.560;19.090;2022-12-29T16:32:31;96420.97;;;3.02;80.40
68508;BME280;55510;49.560;19.090;2022-12-29T16:35:45;96417.56;;;3.09;79.87
68508;BME280;55510;49.560;19.090;2022-12-29T16:38:46;96421.97;;;3.01;80.95
68508;BME280;55510;49.560;19.090;2022-12-29T16:41:47;96417.09;;;2.98;80.58
68508;BME280;55510;49.560;19.090;2022-12-29T16:44:48;96408.25;;;3.06;80.38
68508;BME280;55510;49.560;19.090;2022-12-29T16:51:16;96423.81;;;3.01;80.85
68508;BME280;55510;49.560;19.090;2022-12-29T16:54:22;96425.00;;;2.98;80.60
68508;BME280;55510;49.560;19.090;2022-12-29T16:57:30;96430.03;;;2.93;80.65
68508;BME280;55510;49.560;19.090;2022-12-29T17:00:35;96415.81;;;2.81;80.82
68508;BME280;55510;49.560;19.090;2022-12-29T17:03:41;96422.22;;;2.71;81.78
68508;BME280;55510;49.560;19.090;2022-12-29T17:06:44;96425.25;;;2.68;82.21
68508;BME280;55510;49.560;19.090;2022-12-29T17:09:44;96432.63;;;2.58;82.32
68508;BME280;55510;49.560;19.090;2022-12-29T17:12:47;96440.28;;;2.53;83.23
68508;BME280;55510;49.560;19.090;2022-12-29T17:15:48;96446.69;;;2.43;82.97
68508;BME280;55510;49.560;19.090;2022-12-29T17:18:49;96440.81;;;2.41;83.65
68508;BME280;55510;49.560;19.090;2022-12-29T17:21:49;96443.66;;;2.46;84.01
68508;BME280;55510;49.560;19.090;2022-12-29T17:24:52;96440.59;;;2.43;83.73
68508;BME280;55510;49.560;19.090;2022-12-29T17:27:57;96445.44;;;2.39;84.16
68508;BME280;55510;49.560;19.090;2022-12-29T17:31:04;96439.72;;;2.36;83.56
68508;BME280;55510;49.560;19.090;2022-12-29T17:34:07;96450.44;;;2.34;84.06
68508;BME280;55510;49.560;19.090;2022-12-29T17:37:33;96451.38;;;2.26;83.98
68508;BME280;55510;49.560;19.090;2022-12-29T17:40:35;96454.00;;;2.26;84.31
68508;BME280;55510;49.560;19.090;2022-12-29T17:43:37;96466.06;;;2.21;84.47
68508;BME280;55510;49.560;19.090;2022-12-29T17:46:37;96460.16;;;2.12;84.84
68508;BME280;55510;49.560;19.090;2022-12-29T17:49:41;96470.03;;;2.10;85.24
68508;BME280;55510;49.560;19.090;2022-12-29T17:53:23;96479.91;;;2.08;85.77
68508;BME280;55510;49.560;19.090;2022-12-29T17:56:25;96476.06;;;2.10;85.86
68508;BME280;55510;49.560;19.090;2022-12-29T17:59:26;96471.44;;;2.12;85.11
68508;BME280;55510;49.560;19.090;2022-12-29T18:02:30;96475.06;;;2.11;85.07
68508;BME280;55510;49.560;19.090;2022-12-29T18:05:31;96468.81;;;2.12;85.45
68508;BME280;55510;49.560;19.090;2022-12-29T18:08:32;96470.66;;;2.12;85.46
68508;BME280;55510;49.560;19.090;2022-12-29T18:11:38;96481.19;;;2.18;85.26
68508;BME280;55510;49.560;19.090;2022-12-29T18:14:39;96472.31;;;2.20;84.89
68508;BME280;55510;49.560;19.090;2022-12-29T18:17:40;96469.69;;;2.20;85.09
68508;BME280;55510;49.560;19.090;2022-12-29T18:20:42;96472.31;;;2.20;84.80
68508;BME280;55510;49.560;19.090;2022-12-29T18:23:44;96475.59;;;2.22;85.11
68508;BME280;55510;49.560;19.090;2022-12-29T18:26:44;96474.41;;;2.24;85.13
68508;BME280;55510;49.560;19.090;2022-12-29T18:29:45;96473.63;;;2.30;85.24
68508;BME280;55510;49.560;19.090;2022-12-29T18:32:46;96468.81;;;2.34;84.96
68508;BME280;55510;49.560;19.090;2022-12-29T18:38:56;96446.19;;;2.33;84.22
68508;BME280;55510;49.560;19.090;2022-12-29T18:41:57;96444.09;;;2.22;84.27
68508;BME280;55510;49.560;19.090;2022-12-29T18:44:58;96443.72;;;2.25;83.70
68508;BME280;55510;49.560;19.090;2022-12-29T18:47:59;96442.78;;;2.11;83.44
68508;BME280;55510;49.560;19.090;2022-12-29T18:51:00;96441.38;;;1.93;83.93
68508;BME280;55510;49.560;19.090;2022-12-29T18:54:01;96446.75;;;1.85;84.35
68508;BME280;55510;49.560;19.090;2022-12-29T18:57:02;96440.75;;;1.69;85.02